sensor_id;sensor_type;location;lat;lon;timestamp;temperature;humidity
43047;DHT22;28672;49.358;8.780;2022-09-16T00:00:23;14.20;99.90
43047;DHT22;28672;49.358;8.780;2022-09-16T00:02:51;14.20;99.90
43047;DHT22;28672;49.358;8.780;2022-09-16T00:05:17;14.20;99.90
43047;DHT22;28672;49.358;8.780;2022-09-16T00:07:43;14.20;99.90
43047;DHT22;28672;49.358;8.780;2022-09-16T00:10:09;14.20;99.90
43047;DHT22;28672;49.358;8.780;2022-09-16T00:12:35;14.10;99.90
43047;DHT22;28672;49.358;8.780;2022-09-16T00:15:01;14.10;99.90
43047;DHT22;28672;49.358;8.780;2022-09-16T00:17:26;14.10;99.90
43047;DHT22;28672;49.358;8.780;2022-09-16T00:19:54;14.10;99.90
43047;DHT22;28672;49.358;8.780;2022-09-16T00:22:20;14.10;99.90
43047;DHT22;28672;49.358;8.780;2022-09-16T00:24:47;14.10;99.90
43047;DHT22;28672;49.358;8.780;2022-09-16T00:27:12;14.10;99.90
43047;DHT22;28672;49.358;8.780;2022-09-16T00:29:38;14.00;99.90
43047;DHT22;28672;49.358;8.780;2022-09-16T00:32:03;14.00;99.90
43047;DHT22;28672;49.358;8.780;2022-09-16T00:34:29;14.00;99.90
43047;DHT22;28672;49.358;8.780;2022-09-16T00:36:54;14.00;99.90
43047;DHT22;28672;49.358;8.780;2022-09-16T00:39:20;14.00;99.90
43047;DHT22;28672;49.358;8.780;2022-09-16T00:41:45;13.90;99.90
43047;DHT22;28672;49.358;8.780;2022-09-16T00:47:17;13.80;99.90
43047;DHT22;28672;49.358;8.780;2022-09-16T00:49:44;13.90;99.90
43047;DHT22;28672;49.358;8.780;2022-09-16T00:52:11;13.80;99.90
43047;DHT22;28672;49.358;8.780;2022-09-16T00:54:38;13.80;99.90
43047;DHT22;28672;49.358;8.780;2022-09-16T00:57:06;13.70;99.90
43047;DHT22;28672;49.358;8.780;2022-09-16T00:59:35;13.70;99.90
43047;DHT22;28672;49.358;8.780;2022-09-16T01:02:08;13.60;99.90
43047;DHT22;28672;49.358;8.780;2022-09-16T01:04:43;13.50;99.90
43047;DHT22;28672;49.358;8.780;2022-09-16T01:07:09;13.40;99.90
43047;DHT22;28672;49.358;8.780;2022-09-16T01:09:35;13.40;99.90
43047;DHT22;28672;49.358;8.780;2022-09-16T01:12:02;13.30;99.90
43047;DHT22;28672;49.358;8.780;2022-09-16T01:14:28;13.20;99.90
43047;DHT22;28672;49.358;8.780;2022-09-16T01:20:42;13.20;99.90
43047;DHT22;28672;49.358;8.780;2022-09-16T01:31:47;13.30;99.90
43047;DHT22;28672;49.358;8.780;2022-09-16T01:34:51;13.30;99.90
43047;DHT22;28672;49.358;8.780;2022-09-16T01:37:39;13.20;99.90
43047;DHT22;28672;49.358;8.780;2022-09-16T01:43:17;13.10;99.90
43047;DHT22;28672;49.358;8.780;2022-09-16T01:46:01;13.10;99.90
43047;DHT22;28672;49.358;8.780;2022-09-16T01:48:40;13.10;99.90
43047;DHT22;28672;49.358;8.780;2022-09-16T01:51:35;13.10;99.90
43047;DHT22;28672;49.358;8.780;2022-09-16T01:54:23;13.10;99.90
43047;DHT22;28672;49.358;8.780;2022-09-16T01:59:46;13.00;99.90
43047;DHT22;28672;49.358;8.780;2022-09-16T02:04:49;12.90;99.90
43047;DHT22;28672;49.358;8.780;2022-09-16T02:07:19;12.90;99.90
43047;DHT22;28672;49.358;8.780;2022-09-16T02:09:51;12.90;99.90
43047;DHT22;28672;49.358;8.780;2022-09-16T02:12:23;12.80;99.90
43047;DHT22;28672;49.358;8.780;2022-09-16T02:14:56;12.90;99.90
43047;DHT22;28672;49.358;8.780;2022-09-16T02:17:25;12.90;99.90
43047;DHT22;28672;49.358;8.780;2022-09-16T02:20:24;12.90;99.90
43047;DHT22;28672;49.358;8.780;2022-09-16T02:22:57;12.90;99.90
43047;DHT22;28672;49.358;8.780;2022-09-16T02:25:25;12.90;99.90
43047;DHT22;28672;49.358;8.780;2022-09-16T02:27:52;12.80;99.90
43047;DHT22;28672;49.358;8.780;2022-09-16T02:30:20;12.80;99.90
43047;DHT22;28672;49.358;8.780;2022-09-16T02:32:48;12.90;99.90
43047;DHT22;28672;49.358;8.780;2022-09-16T02:35:17;13.00;99.90
43047;DHT22;28672;49.358;8.780;2022-09-16T02:38:06;13.00;99.90
43047;DHT22;28672;49.358;8.780;2022-09-16T02:40:34;13.00;99.90
43047;DHT22;28672;49.358;8.780;2022-09-16T02:43:01;13.00;99.90
43047;DHT22;28672;49.358;8.780;2022-09-16T02:45:45;13.10;99.90
43047;DHT22;28672;49.358;8.780;2022-09-16T02:48:52;13.10;99.90
43047;DHT22;28672;49.358;8.780;2022-09-16T02:51:34;13.10;99.90
43047;DHT22;28672;49.358;8.780;2022-09-16T02:54:11;13.10;99.90
43047;DHT22;28672;49.358;8.780;2022-09-16T02:56:42;13.10;99.90
43047;DHT22;28672;49.358;8.780;2022-09-16T02:59:10;13.20;99.90
43047;DHT22;28672;49.358;8.780;2022-09-16T03:01:40;13.20;99.90
43047;DHT22;28672;49.358;8.780;2022-09-16T03:04:12;13.20;99.90
43047;DHT22;28672;49.358;8.780;2022-09-16T03:06:38;13.30;99.90
43047;DHT22;28672;49.358;8.780;2022-09-16T03:09:07;13.30;99.90
43047;DHT22;28672;49.358;8.780;2022-09-16T03:12:00;13.30;99.90
43047;DHT22;28672;49.358;8.780;2022-09-16T03:15:42;13.40;99.90
43047;DHT22;28672;49.358;8.780;2022-09-16T03:23:41;13.40;99.90
43047;DHT22;28672;49.358;8.780;2022-09-16T03:26:53;13.50;99.90
43047;DHT22;28672;49.358;8.780;2022-09-16T03:29:30;13.50;99.90
43047;DHT22;28672;49.358;8.780;2022-09-16T03:32:21;13.50;99.90
43047;DHT22;28672;49.358;8.780;2022-09-16T03:34:54;13.50;99.90
43047;DHT22;28672;49.358;8.780;2022-09-16T03:37:26;13.50;99.90
43047;DHT22;28672;49.358;8.780;2022-09-16T03:39:56;13.50;99.90
43047;DHT22;28672;49.358;8.780;2022-09-16T03:42:23;13.50;99.90
43047;DHT22;28672;49.358;8.780;2022-09-16T03:44:48;13.50;99.90
43047;DHT22;28672;49.358;8.780;2022-09-16T03:47:15;13.50;99.90
43047;DHT22;28672;49.358;8.780;2022-09-16T03:49:41;13.40;99.90
43047;DHT22;28672;49.358;8.780;2022-09-16T03:52:06;13.50;99.90
43047;DHT22;28672;49.358;8.780;2022-09-16T03:54:33;13.40;99.90
43047;DHT22;28672;49.358;8.780;2022-09-16T03:56:59;13.40;99.90
43047;DHT22;28672;49.358;8.780;2022-09-16T03:59:25;13.40;99.90
43047;DHT22;28672;49.358;8.780;2022-09-16T04:01:51;13.40;99.90
43047;DHT22;28672;49.358;8.780;2022-09-16T04:04:17;13.40;99.90
43047;DHT22;28672;49.358;8.780;2022-09-16T04:06:42;13.40;99.90
43047;DHT22;28672;49.358;8.780;2022-09-16T04:09:10;13.30;99.90
43047;DHT22;28672;49.358;8.780;2022-09-16T04:11:36;13.30;99.90
43047;DHT22;28672;49.358;8.780;2022-09-16T04:14:03;13.30;99.90
43047;DHT22;28672;49.358;8.780;2022-09-16T04:16:29;13.30;99.90
43047;DHT22;28672;49.358;8.780;2022-09-16T04:18:55;13.30;99.90
43047;DHT22;28672;49.358;8.780;2022-09-16T04:21:21;13.40;99.90
43047;DHT22;28672;49.358;8.780;2022-09-16T04:23:47;13.30;99.90
43047;DHT22;28672;49.358;8.780;2022-09-16T04:26:13;13.40;99.90
43047;DHT22;28672;49.358;8.780;2022-09-16T04:28:39;13.40;99.90
43047;DHT22;28672;49.358;8.780;2022-09-16T04:31:10;13.40;99.90
43047;DHT22;28672;49.358;8.780;2022-09-16T04:33:37;13.40;99.90
43047;DHT22;28672;49.358;8.780;2022-09-16T04:36:08;13.30;99.90
43047;DHT22;28672;49.358;8.780;2022-09-16T04:38:35;13.40;99.90
43047;DHT22;28672;49.358;8.780;2022-09-16T04:41:15;13.40;99.90
43047;DHT22;28672;49.358;8.780;2022-09-16T04:43:41;13.40;99.90
43047;DHT22;28672;49.358;8.780;2022-09-16T04:46:07;13.50;99.90
43047;DHT22;28672;49.358;8.780;2022-09-16T04:48:34;13.40;99.90
43047;DHT22;28672;49.358;8.780;2022-09-16T04:51:02;13.40;99.90
43047;DHT22;28672;49.358;8.780;2022-09-16T04:53:28;13.40;99.90
43047;DHT22;28672;49.358;8.780;2022-09-16T04:56:00;13.40;99.90
43047;DHT22;28672;49.358;8.780;2022-09-16T04:58:28;13.40;99.90
43047;DHT22;28672;49.358;8.780;2022-09-16T05:00:53;13.40;99.90
43047;DHT22;28672;49.358;8.780;2022-09-16T05:03:19;13.30;99.90
43047;DHT22;28672;49.358;8.780;2022-09-16T05:05:44;13.40;99.90
43047;DHT22;28672;49.358;8.780;2022-09-16T05:08:10;13.30;99.90
43047;DHT22;28672;49.358;8.780;2022-09-16T05:10:35;13.20;99.90
43047;DHT22;28672;49.358;8.780;2022-09-16T05:13:01;13.20;99.90
43047;DHT22;28672;49.358;8.780;2022-09-16T05:15:26;13.20;99.90
43047;DHT22;28672;49.358;8.780;2022-09-16T05:17:52;13.20;99.90
43047;DHT22;28672;49.358;8.780;2022-09-16T05:20:17;13.20;99.90
43047;DHT22;28672;49.358;8.780;2022-09-16T05:22:43;13.20;99.90
43047;DHT22;28672;49.358;8.780;2022-09-16T05:25:09;13.20;99.90
43047;DHT22;28672;49.358;8.780;2022-09-16T05:27:34;13.20;99.90
43047;DHT22;28672;49.358;8.780;2022-09-16T05:30:00;13.20;99.90
43047;DHT22;28672;49.358;8.780;2022-09-16T05:32:25;13.30;99.90
43047;DHT22;28672;49.358;8.780;2022-09-16T05:34:51;13.20;99.90
43047;DHT22;28672;49.358;8.780;2022-09-16T05:37:17;13.20;99.90
43047;DHT22;28672;49.358;8.780;2022-09-16T05:39:42;13.30;99.90
43047;DHT22;28672;49.358;8.780;2022-09-16T05:42:08;13.20;99.90
43047;DHT22;28672;49.358;8.780;2022-09-16T05:44:34;13.20;99.90
43047;DHT22;28672;49.358;8.780;2022-09-16T05:47:00;13.20;99.90
43047;DHT22;28672;49.358;8.780;2022-09-16T05:49:25;13.30;99.90
43047;DHT22;28672;49.358;8.780;2022-09-16T05:51:51;13.30;99.90
43047;DHT22;28672;49.358;8.780;2022-09-16T05:54:17;13.30;99.90
43047;DHT22;28672;49.358;8.780;2022-09-16T05:56:43;13.30;99.90
43047;DHT22;28672;49.358;8.780;2022-09-16T05:59:11;13.40;99.90
43047;DHT22;28672;49.358;8.780;2022-09-16T06:01:37;13.40;99.90
43047;DHT22;28672;49.358;8.780;2022-09-16T06:04:04;13.40;99.90
43047;DHT22;28672;49.358;8.780;2022-09-16T06:06:32;13.40;99.90
43047;DHT22;28672;49.358;8.780;2022-09-16T06:09:08;13.30;99.90
43047;DHT22;28672;49.358;8.780;2022-09-16T06:11:39;13.40;99.90
43047;DHT22;28672;49.358;8.780;2022-09-16T06:14:05;13.50;99.90
43047;DHT22;28672;49.358;8.780;2022-09-16T06:16:31;13.50;99.90
43047;DHT22;28672;49.358;8.780;2022-09-16T06:18:59;13.60;99.90
43047;DHT22;28672;49.358;8.780;2022-09-16T06:21:25;13.60;99.90
43047;DHT22;28672;49.358;8.780;2022-09-16T06:23:52;13.70;99.90
43047;DHT22;28672;49.358;8.780;2022-09-16T06:26:20;13.70;99.90
43047;DHT22;28672;49.358;8.780;2022-09-16T06:28:46;13.70;99.90
43047;DHT22;28672;49.358;8.780;2022-09-16T06:31:18;13.80;99.90
43047;DHT22;28672;49.358;8.780;2022-09-16T06:33:44;13.80;99.90
43047;DHT22;28672;49.358;8.780;2022-09-16T06:36:24;13.80;99.90
43047;DHT22;28672;49.358;8.780;2022-09-16T06:38:50;13.90;99.90
43047;DHT22;28672;49.358;8.780;2022-09-16T06:41:18;13.90;99.90
43047;DHT22;28672;49.358;8.780;2022-09-16T06:43:44;14.00;99.90
43047;DHT22;28672;49.358;8.780;2022-09-16T06:46:15;14.10;99.90
43047;DHT22;28672;49.358;8.780;2022-09-16T06:48:42;14.10;99.90
43047;DHT22;28672;49.358;8.780;2022-09-16T06:51:13;14.20;99.90
43047;DHT22;28672;49.358;8.780;2022-09-16T06:53:40;14.10;99.90
43047;DHT22;28672;49.358;8.780;2022-09-16T06:56:07;14.10;99.90
43047;DHT22;28672;49.358;8.780;2022-09-16T06:58:35;14.20;99.90
43047;DHT22;28672;49.358;8.780;2022-09-16T07:01:09;14.20;99.90
43047;DHT22;28672;49.358;8.780;2022-09-16T07:03:39;14.30;99.90
43047;DHT22;28672;49.358;8.780;2022-09-16T07:06:06;14.30;99.90
43047;DHT22;28672;49.358;8.780;2022-09-16T07:08:33;14.30;99.90
43047;DHT22;28672;49.358;8.780;2022-09-16T07:11:02;14.40;99.90
43047;DHT22;28672;49.358;8.780;2022-09-16T07:13:28;14.40;99.90
43047;DHT22;28672;49.358;8.780;2022-09-16T07:15:58;14.50;99.90
43047;DHT22;28672;49.358;8.780;2022-09-16T07:18:24;14.70;99.90
43047;DHT22;28672;49.358;8.780;2022-09-16T07:20:49;15.00;99.90
43047;DHT22;28672;49.358;8.780;2022-09-16T07:23:15;15.30;99.90
43047;DHT22;28672;49.358;8.780;2022-09-16T07:25:40;15.60;99.90
43047;DHT22;28672;49.358;8.780;2022-09-16T07:28:06;15.90;99.90
43047;DHT22;28672;49.358;8.780;2022-09-16T07:30:32;16.30;99.90
43047;DHT22;28672;49.358;8.780;2022-09-16T07:32:58;16.20;99.90
43047;DHT22;28672;49.358;8.780;2022-09-16T07:35:24;16.10;99.90
43047;DHT22;28672;49.358;8.780;2022-09-16T07:37:50;16.10;99.90
43047;DHT22;28672;49.358;8.780;2022-09-16T07:40:15;16.10;99.90
43047;DHT22;28672;49.358;8.780;2022-09-16T07:42:41;16.00;99.90
43047;DHT22;28672;49.358;8.780;2022-09-16T07:45:07;16.00;99.90
43047;DHT22;28672;49.358;8.780;2022-09-16T07:47:33;16.00;99.90
43047;DHT22;28672;49.358;8.780;2022-09-16T07:49:59;15.90;99.90
43047;DHT22;28672;49.358;8.780;2022-09-16T07:52:25;15.90;99.90
43047;DHT22;28672;49.358;8.780;2022-09-16T07:54:54;15.90;99.90
43047;DHT22;28672;49.358;8.780;2022-09-16T07:57:20;16.00;99.90
43047;DHT22;28672;49.358;8.780;2022-09-16T07:59:46;15.90;99.90
43047;DHT22;28672;49.358;8.780;2022-09-16T08:02:12;15.70;99.90
43047;DHT22;28672;49.358;8.780;2022-09-16T08:04:37;15.70;99.90
43047;DHT22;28672;49.358;8.780;2022-09-16T08:07:04;15.70;99.90
43047;DHT22;28672;49.358;8.780;2022-09-16T08:09:30;15.60;99.90
43047;DHT22;28672;49.358;8.780;2022-09-16T08:11:56;15.70;99.90
43047;DHT22;28672;49.358;8.780;2022-09-16T08:14:22;15.60;99.90
43047;DHT22;28672;49.358;8.780;2022-09-16T08:16:47;15.60;99.90
43047;DHT22;28672;49.358;8.780;2022-09-16T08:19:15;15.50;99.90
43047;DHT22;28672;49.358;8.780;2022-09-16T08:21:41;15.60;99.90
43047;DHT22;28672;49.358;8.780;2022-09-16T08:24:08;15.60;99.90
43047;DHT22;28672;49.358;8.780;2022-09-16T08:26:34;15.60;99.90
43047;DHT22;28672;49.358;8.780;2022-09-16T08:29:00;15.50;99.90
43047;DHT22;28672;49.358;8.780;2022-09-16T08:31:26;15.60;99.90
43047;DHT22;28672;49.358;8.780;2022-09-16T08:33:52;15.60;99.90
43047;DHT22;28672;49.358;8.780;2022-09-16T08:36:19;15.60;99.90
43047;DHT22;28672;49.358;8.780;2022-09-16T08:38:47;15.60;99.90
43047;DHT22;28672;49.358;8.780;2022-09-16T08:41:24;15.60;99.90
43047;DHT22;28672;49.358;8.780;2022-09-16T08:49:43;15.50;99.90
43047;DHT22;28672;49.358;8.780;2022-09-16T08:52:14;15.60;99.90
43047;DHT22;28672;49.358;8.780;2022-09-16T08:54:46;15.70;99.90
43047;DHT22;28672;49.358;8.780;2022-09-16T08:57:17;15.60;99.90
43047;DHT22;28672;49.358;8.780;2022-09-16T08:59:48;15.70;99.90
43047;DHT22;28672;49.358;8.780;2022-09-16T09:04:57;15.90;99.90
43047;DHT22;28672;49.358;8.780;2022-09-16T09:07:38;16.10;99.90
43047;DHT22;28672;49.358;8.780;2022-09-16T09:10:12;16.10;99.90
43047;DHT22;28672;49.358;8.780;2022-09-16T09:12:47;16.20;99.90
43047;DHT22;28672;49.358;8.780;2022-09-16T09:15:29;16.10;99.90
43047;DHT22;28672;49.358;8.780;2022-09-16T09:18:15;16.30;99.90
43047;DHT22;28672;49.358;8.780;2022-09-16T09:29:32;16.30;99.90
43047;DHT22;28672;49.358;8.780;2022-09-16T09:32:15;16.40;99.90
43047;DHT22;28672;49.358;8.780;2022-09-16T09:37:47;16.70;99.90
43047;DHT22;28672;49.358;8.780;2022-09-16T09:46:05;16.80;99.90
43047;DHT22;28672;49.358;8.780;2022-09-16T09:48:42;16.80;99.90
43047;DHT22;28672;49.358;8.780;2022-09-16T09:54:08;16.90;99.90
43047;DHT22;28672;49.358;8.780;2022-09-16T09:56:41;17.00;99.90
43047;DHT22;28672;49.358;8.780;2022-09-16T10:01:36;17.30;99.90
43047;DHT22;28672;49.358;8.780;2022-09-16T10:04:01;17.60;99.90
43047;DHT22;28672;49.358;8.780;2022-09-16T10:06:33;17.80;99.90
43047;DHT22;28672;49.358;8.780;2022-09-16T10:09:00;17.80;99.90
43047;DHT22;28672;49.358;8.780;2022-09-16T10:11:30;17.90;99.90
43047;DHT22;28672;49.358;8.780;2022-09-16T10:14:01;17.90;99.90
43047;DHT22;28672;49.358;8.780;2022-09-16T10:16:31;17.90;99.90
43047;DHT22;28672;49.358;8.780;2022-09-16T10:19:22;17.60;99.90
43047;DHT22;28672;49.358;8.780;2022-09-16T10:21:53;17.50;99.90
43047;DHT22;28672;49.358;8.780;2022-09-16T10:24:34;17.30;99.90
43047;DHT22;28672;49.358;8.780;2022-09-16T10:27:14;17.30;99.90
43047;DHT22;28672;49.358;8.780;2022-09-16T10:29:41;17.20;99.90
43047;DHT22;28672;49.358;8.780;2022-09-16T10:32:07;17.40;99.90
43047;DHT22;28672;49.358;8.780;2022-09-16T10:34:37;17.50;99.90
43047;DHT22;28672;49.358;8.780;2022-09-16T10:37:15;17.60;99.90
43047;DHT22;28672;49.358;8.780;2022-09-16T10:39:53;17.90;99.90
43047;DHT22;28672;49.358;8.780;2022-09-16T10:42:24;18.20;99.90
43047;DHT22;28672;49.358;8.780;2022-09-16T10:44:52;18.10;99.90
43047;DHT22;28672;49.358;8.780;2022-09-16T10:47:24;18.30;99.90
43047;DHT22;28672;49.358;8.780;2022-09-16T10:49:56;18.20;99.90
43047;DHT22;28672;49.358;8.780;2022-09-16T10:52:25;18.20;99.90
43047;DHT22;28672;49.358;8.780;2022-09-16T10:54:51;18.40;99.90
43047;DHT22;28672;49.358;8.780;2022-09-16T10:57:27;18.50;99.90
43047;DHT22;28672;49.358;8.780;2022-09-16T11:02:50;18.90;99.90
43047;DHT22;28672;49.358;8.780;2022-09-16T11:08:18;19.10;99.90
43047;DHT22;28672;49.358;8.780;2022-09-16T11:13:26;19.40;99.90
43047;DHT22;28672;49.358;8.780;2022-09-16T11:16:32;19.60;99.90
43047;DHT22;28672;49.358;8.780;2022-09-16T11:19:12;20.10;99.90
43047;DHT22;28672;49.358;8.780;2022-09-16T11:30:12;20.20;99.90
43047;DHT22;28672;49.358;8.780;2022-09-16T11:52:47;18.60;99.90
43047;DHT22;28672;49.358;8.780;2022-09-16T11:55:24;18.70;99.90
43047;DHT22;28672;49.358;8.780;2022-09-16T11:57:59;19.10;99.90
43047;DHT22;28672;49.358;8.780;2022-09-16T12:00:29;19.40;99.90
43047;DHT22;28672;49.358;8.780;2022-09-16T12:03:13;19.50;99.90
43047;DHT22;28672;49.358;8.780;2022-09-16T12:05:48;19.70;99.90
43047;DHT22;28672;49.358;8.780;2022-09-16T12:10:56;20.10;99.90
43047;DHT22;28672;49.358;8.780;2022-09-16T12:13:27;19.90;99.90
43047;DHT22;28672;49.358;8.780;2022-09-16T12:15:58;20.20;99.90
43047;DHT22;28672;49.358;8.780;2022-09-16T12:18:25;20.00;99.90
43047;DHT22;28672;49.358;8.780;2022-09-16T12:21:12;20.00;99.90
43047;DHT22;28672;49.358;8.780;2022-09-16T12:23:46;20.50;99.90
43047;DHT22;28672;49.358;8.780;2022-09-16T12:26:19;21.00;99.90
43047;DHT22;28672;49.358;8.780;2022-09-16T12:34:38;21.60;99.90
43047;DHT22;28672;49.358;8.780;2022-09-16T12:39:34;21.10;99.90
43047;DHT22;28672;49.358;8.780;2022-09-16T12:44:52;21.60;99.90
43047;DHT22;28672;49.358;8.780;2022-09-16T12:47:47;21.70;99.90
43047;DHT22;28672;49.358;8.780;2022-09-16T12:56:19;21.20;99.90
43047;DHT22;28672;49.358;8.780;2022-09-16T13:01:59;20.60;99.90
43047;DHT22;28672;49.358;8.780;2022-09-16T13:04:41;20.60;99.90
43047;DHT22;28672;49.358;8.780;2022-09-16T13:07:20;20.30;99.90
43047;DHT22;28672;49.358;8.780;2022-09-16T13:09:47;19.60;99.90
43047;DHT22;28672;49.358;8.780;2022-09-16T13:12:21;19.20;99.90
43047;DHT22;28672;49.358;8.780;2022-09-16T13:14:54;19.20;99.90
43047;DHT22;28672;49.358;8.780;2022-09-16T13:17:32;19.00;99.90
43047;DHT22;28672;49.358;8.780;2022-09-16T13:20:26;19.20;99.90
43047;DHT22;28672;49.358;8.780;2022-09-16T13:23:12;19.20;99.90
43047;DHT22;28672;49.358;8.780;2022-09-16T13:28:41;19.60;99.90
43047;DHT22;28672;49.358;8.780;2022-09-16T13:33:41;19.90;99.90
43047;DHT22;28672;49.358;8.780;2022-09-16T13:36:16;20.00;99.90
43047;DHT22;28672;49.358;8.780;2022-09-16T13:39:02;20.20;99.90
43047;DHT22;28672;49.358;8.780;2022-09-16T13:43:54;20.00;99.90
43047;DHT22;28672;49.358;8.780;2022-09-16T13:46:36;20.30;99.90
43047;DHT22;28672;49.358;8.780;2022-09-16T13:51:28;20.20;99.90
43047;DHT22;28672;49.358;8.780;2022-09-16T13:53:54;20.20;99.90
43047;DHT22;28672;49.358;8.780;2022-09-16T13:56:38;20.10;99.90
43047;DHT22;28672;49.358;8.780;2022-09-16T14:02:00;20.10;99.90
43047;DHT22;28672;49.358;8.780;2022-09-16T14:07:50;19.80;99.90
43047;DHT22;28672;49.358;8.780;2022-09-16T14:13:21;19.60;99.90
43047;DHT22;28672;49.358;8.780;2022-09-16T14:15:52;19.50;99.90
43047;DHT22;28672;49.358;8.780;2022-09-16T14:18:21;19.30;99.90
43047;DHT22;28672;49.358;8.780;2022-09-16T14:21:16;19.20;99.90
43047;DHT22;28672;49.358;8.780;2022-09-16T14:23:42;19.10;99.90
43047;DHT22;28672;49.358;8.780;2022-09-16T14:26:12;18.80;99.90
43047;DHT22;28672;49.358;8.780;2022-09-16T14:28:39;18.40;99.90
43047;DHT22;28672;49.358;8.780;2022-09-16T14:31:21;17.90;99.90
43047;DHT22;28672;49.358;8.780;2022-09-16T14:33:55;17.50;99.90
43047;DHT22;28672;49.358;8.780;2022-09-16T14:36:25;17.40;99.90
43047;DHT22;28672;49.358;8.780;2022-09-16T14:38:56;17.00;99.90
43047;DHT22;28672;49.358;8.780;2022-09-16T14:41:29;16.90;99.90
43047;DHT22;28672;49.358;8.780;2022-09-16T14:44:02;16.90;99.90
43047;DHT22;28672;49.358;8.780;2022-09-16T14:46:31;17.10;99.90
43047;DHT22;28672;49.358;8.780;2022-09-16T14:48:57;17.00;99.90
43047;DHT22;28672;49.358;8.780;2022-09-16T14:51:24;17.10;99.90
43047;DHT22;28672;49.358;8.780;2022-09-16T14:53:56;17.30;99.90
43047;DHT22;28672;49.358;8.780;2022-09-16T14:56:22;17.40;99.90
43047;DHT22;28672;49.358;8.780;2022-09-16T14:58:48;17.50;99.90
43047;DHT22;28672;49.358;8.780;2022-09-16T15:01:19;17.50;99.90
43047;DHT22;28672;49.358;8.780;2022-09-16T15:03:52;17.50;99.90
43047;DHT22;28672;49.358;8.780;2022-09-16T15:06:21;17.40;99.90
43047;DHT22;28672;49.358;8.780;2022-09-16T15:08:52;17.30;99.90
43047;DHT22;28672;49.358;8.780;2022-09-16T15:11:22;17.20;99.90
43047;DHT22;28672;49.358;8.780;2022-09-16T15:13:50;17.10;99.90
43047;DHT22;28672;49.358;8.780;2022-09-16T15:16:19;17.00;99.90
43047;DHT22;28672;49.358;8.780;2022-09-16T15:19:00;17.00;99.90
43047;DHT22;28672;49.358;8.780;2022-09-16T15:21:32;17.10;99.90
43047;DHT22;28672;49.358;8.780;2022-09-16T15:24:00;17.10;99.90
43047;DHT22;28672;49.358;8.780;2022-09-16T15:31:49;17.10;99.90
43047;DHT22;28672;49.358;8.780;2022-09-16T15:36:50;16.70;99.90
43047;DHT22;28672;49.358;8.780;2022-09-16T15:39:29;16.70;99.90
43047;DHT22;28672;49.358;8.780;2022-09-16T15:42:21;16.60;99.90
43047;DHT22;28672;49.358;8.780;2022-09-16T15:44:55;16.40;99.90
43047;DHT22;28672;49.358;8.780;2022-09-16T15:47:27;16.20;99.90
43047;DHT22;28672;49.358;8.780;2022-09-16T15:50:04;15.70;99.90
43047;DHT22;28672;49.358;8.780;2022-09-16T15:52:41;15.50;99.90
43047;DHT22;28672;49.358;8.780;2022-09-16T16:01:03;14.90;99.90
43047;DHT22;28672;49.358;8.780;2022-09-16T16:03:36;14.70;99.90
43047;DHT22;28672;49.358;8.780;2022-09-16T16:06:03;14.70;99.90
43047;DHT22;28672;49.358;8.780;2022-09-16T16:08:55;14.70;99.90
43047;DHT22;28672;49.358;8.780;2022-09-16T16:11:22;14.80;99.90
43047;DHT22;28672;49.358;8.780;2022-09-16T16:13:48;14.70;99.90
43047;DHT22;28672;49.358;8.780;2022-09-16T16:16:17;14.80;99.90
43047;DHT22;28672;49.358;8.780;2022-09-16T16:18:44;14.80;99.90
43047;DHT22;28672;49.358;8.780;2022-09-16T16:21:12;14.80;99.90
43047;DHT22;28672;49.358;8.780;2022-09-16T16:23:38;14.80;99.90
43047;DHT22;28672;49.358;8.780;2022-09-16T16:26:05;14.90;99.90
43047;DHT22;28672;49.358;8.780;2022-09-16T16:28:31;14.90;99.90
43047;DHT22;28672;49.358;8.780;2022-09-16T16:31:26;14.80;99.90
43047;DHT22;28672;49.358;8.780;2022-09-16T16:33:52;14.90;99.90
43047;DHT22;28672;49.358;8.780;2022-09-16T16:36:18;14.80;99.90
43047;DHT22;28672;49.358;8.780;2022-09-16T16:38:46;14.80;99.90
43047;DHT22;28672;49.358;8.780;2022-09-16T16:41:18;14.80;99.90
43047;DHT22;28672;49.358;8.780;2022-09-16T16:43:44;14.60;99.90
43047;DHT22;28672;49.358;8.780;2022-09-16T16:46:10;14.60;99.90
43047;DHT22;28672;49.358;8.780;2022-09-16T16:48:35;14.60;99.90
43047;DHT22;28672;49.358;8.780;2022-09-16T16:51:04;14.50;99.90
43047;DHT22;28672;49.358;8.780;2022-09-16T16:53:31;14.40;99.90
43047;DHT22;28672;49.358;8.780;2022-09-16T16:56:03;14.40;99.90
43047;DHT22;28672;49.358;8.780;2022-09-16T16:58:32;14.20;99.90
43047;DHT22;28672;49.358;8.780;2022-09-16T17:01:10;14.20;99.90
43047;DHT22;28672;49.358;8.780;2022-09-16T17:03:38;14.20;99.90
43047;DHT22;28672;49.358;8.780;2022-09-16T17:06:04;14.10;99.90
43047;DHT22;28672;49.358;8.780;2022-09-16T17:08:29;14.10;99.90
43047;DHT22;28672;49.358;8.780;2022-09-16T17:13:31;14.00;99.90
43047;DHT22;28672;49.358;8.780;2022-09-16T17:15:57;14.00;99.90
43047;DHT22;28672;49.358;8.780;2022-09-16T17:18:22;13.90;99.90
43047;DHT22;28672;49.358;8.780;2022-09-16T17:20:48;13.80;99.90
43047;DHT22;28672;49.358;8.780;2022-09-16T17:23:14;13.70;99.90
43047;DHT22;28672;49.358;8.780;2022-09-16T17:25:39;13.70;99.90
43047;DHT22;28672;49.358;8.780;2022-09-16T17:28:05;13.70;99.90
43047;DHT22;28672;49.358;8.780;2022-09-16T17:30:31;13.80;99.90
43047;DHT22;28672;49.358;8.780;2022-09-16T17:32:56;13.70;99.90
43047;DHT22;28672;49.358;8.780;2022-09-16T17:35:22;13.70;99.90
43047;DHT22;28672;49.358;8.780;2022-09-16T17:37:47;13.60;99.90
43047;DHT22;28672;49.358;8.780;2022-09-16T17:40:13;13.60;99.90
43047;DHT22;28672;49.358;8.780;2022-09-16T17:42:38;13.40;99.90
43047;DHT22;28672;49.358;8.780;2022-09-16T17:45:04;13.40;99.90
43047;DHT22;28672;49.358;8.780;2022-09-16T17:47:32;13.20;99.90
43047;DHT22;28672;49.358;8.780;2022-09-16T17:49:58;13.10;99.90
43047;DHT22;28672;49.358;8.780;2022-09-16T17:52:28;13.00;99.90
43047;DHT22;28672;49.358;8.780;2022-09-16T17:54:54;13.00;99.90
43047;DHT22;28672;49.358;8.780;2022-09-16T17:57:19;12.90;99.90
43047;DHT22;28672;49.358;8.780;2022-09-16T17:59:47;12.90;99.90
43047;DHT22;28672;49.358;8.780;2022-09-16T18:02:12;12.80;99.90
43047;DHT22;28672;49.358;8.780;2022-09-16T18:04:40;12.70;99.90
43047;DHT22;28672;49.358;8.780;2022-09-16T18:07:07;12.80;99.90
43047;DHT22;28672;49.358;8.780;2022-09-16T18:09:33;12.70;99.90
43047;DHT22;28672;49.358;8.780;2022-09-16T18:11:58;12.70;99.90
43047;DHT22;28672;49.358;8.780;2022-09-16T18:14:24;12.60;99.90
43047;DHT22;28672;49.358;8.780;2022-09-16T18:16:49;12.60;99.90
43047;DHT22;28672;49.358;8.780;2022-09-16T18:19:15;12.50;99.90
43047;DHT22;28672;49.358;8.780;2022-09-16T18:21:40;12.50;99.90
43047;DHT22;28672;49.358;8.780;2022-09-16T18:24:06;12.50;99.90
43047;DHT22;28672;49.358;8.780;2022-09-16T18:26:35;12.50;99.90